sensor_id;sensor_type;location;lat;lon;timestamp;P1;durP1;ratioP1;P2;durP2;ratioP2
33814;SDS011;20121;51.910;8.406;2023-07-13T00:02:21;9.02;;;1.52;;
33814;SDS011;20121;51.910;8.406;2023-07-13T00:04:46;1.43;;;1.33;;
33814;SDS011;20121;51.910;8.406;2023-07-13T00:07:12;1.30;;;1.20;;
33814;SDS011;20121;51.910;8.406;2023-07-13T00:09:39;1.90;;;1.40;;
33814;SDS011;20121;51.910;8.406;2023-07-13T00:12:05;1.60;;;1.50;;
33814;SDS011;20121;51.910;8.406;2023-07-13T00:15:01;1.58;;;1.48;;
33814;SDS011;20121;51.910;8.406;2023-07-13T00:17:36;1.77;;;1.60;;
33814;SDS011;20121;51.910;8.406;2023-07-13T00:20:03;1.60;;;1.50;;
33814;SDS011;20121;51.910;8.406;2023-07-13T00:22:30;1.30;;;1.20;;
33814;SDS011;20121;51.910;8.406;2023-07-13T00:24:55;13.30;;;1.90;;
33814;SDS011;20121;51.910;8.406;2023-07-13T00:27:21;2.50;;;1.80;;
33814;SDS011;20121;51.910;8.406;2023-07-13T00:29:47;2.35;;;1.98;;
33814;SDS011;20121;51.910;8.406;2023-07-13T00:32:13;1.73;;;1.63;;
33814;SDS011;20121;51.910;8.406;2023-07-13T00:34:39;1.83;;;1.73;;
33814;SDS011;20121;51.910;8.406;2023-07-13T00:37:05;1.30;;;1.20;;
33814;SDS011;20121;51.910;8.406;2023-07-13T00:39:35;1.70;;;1.60;;
33814;SDS011;20121;51.910;8.406;2023-07-13T00:42:01;1.85;;;1.42;;
33814;SDS011;20121;51.910;8.406;2023-07-13T00:44:27;1.55;;;1.45;;
33814;SDS011;20121;51.910;8.406;2023-07-13T00:46:53;1.73;;;1.57;;
33814;SDS011;20121;51.910;8.406;2023-07-13T00:49:22;1.50;;;1.40;;
33814;SDS011;20121;51.910;8.406;2023-07-13T00:51:50;1.20;;;1.10;;
33814;SDS011;20121;51.910;8.406;2023-07-13T00:54:24;2.65;;;1.83;;
33814;SDS011;20121;51.910;8.406;2023-07-13T00:56:53;1.55;;;1.45;;
33814;SDS011;20121;51.910;8.406;2023-07-13T00:59:22;3.05;;;1.33;;
33814;SDS011;20121;51.910;8.406;2023-07-13T01:01:49;1.70;;;1.52;;
33814;SDS011;20121;51.910;8.406;2023-07-13T01:04:15;1.50;;;1.40;;
33814;SDS011;20121;51.910;8.406;2023-07-13T01:06:41;2.10;;;1.75;;
33814;SDS011;20121;51.910;8.406;2023-07-13T01:09:09;2.38;;;1.75;;
33814;SDS011;20121;51.910;8.406;2023-07-13T01:11:36;4.10;;;1.85;;
33814;SDS011;20121;51.910;8.406;2023-07-13T01:14:02;1.50;;;1.40;;
33814;SDS011;20121;51.910;8.406;2023-07-13T01:16:29;3.45;;;1.88;;
33814;SDS011;20121;51.910;8.406;2023-07-13T01:18:57;2.95;;;2.00;;
33814;SDS011;20121;51.910;8.406;2023-07-13T01:21:24;4.10;;;1.88;;
33814;SDS011;20121;51.910;8.406;2023-07-13T01:23:50;1.70;;;1.60;;
33814;SDS011;20121;51.910;8.406;2023-07-13T01:26:16;1.85;;;1.30;;
33814;SDS011;20121;51.910;8.406;2023-07-13T01:28:42;1.83;;;1.73;;
33814;SDS011;20121;51.910;8.406;2023-07-13T01:31:08;1.75;;;1.60;;
33814;SDS011;20121;51.910;8.406;2023-07-13T01:33:36;2.08;;;1.50;;
33814;SDS011;20121;51.910;8.406;2023-07-13T01:36:03;3.20;;;1.95;;
33814;SDS011;20121;51.910;8.406;2023-07-13T01:38:28;2.57;;;1.63;;
33814;SDS011;20121;51.910;8.406;2023-07-13T01:40:54;1.50;;;1.40;;
33814;SDS011;20121;51.910;8.406;2023-07-13T01:43:20;2.07;;;1.50;;
33814;SDS011;20121;51.910;8.406;2023-07-13T01:45:46;5.30;;;1.58;;
33814;SDS011;20121;51.910;8.406;2023-07-13T01:48:12;2.40;;;1.47;;
33814;SDS011;20121;51.910;8.406;2023-07-13T01:50:38;3.20;;;1.27;;
33814;SDS011;20121;51.910;8.406;2023-07-13T01:53:04;3.73;;;1.47;;
33814;SDS011;20121;51.910;8.406;2023-07-13T01:55:30;3.50;;;1.95;;
33814;SDS011;20121;51.910;8.406;2023-07-13T01:57:56;2.45;;;1.38;;
33814;SDS011;20121;51.910;8.406;2023-07-13T02:00:22;7.13;;;1.67;;
33814;SDS011;20121;51.910;8.406;2023-07-13T02:02:48;2.03;;;1.60;;
33814;SDS011;20121;51.910;8.406;2023-07-13T02:05:14;2.00;;;1.37;;
33814;SDS011;20121;51.910;8.406;2023-07-13T02:07:39;1.30;;;1.20;;
33814;SDS011;20121;51.910;8.406;2023-07-13T02:10:06;1.23;;;1.13;;
33814;SDS011;20121;51.910;8.406;2023-07-13T02:12:33;1.45;;;1.20;;
33814;SDS011;20121;51.910;8.406;2023-07-13T02:14:59;1.67;;;1.58;;
33814;SDS011;20121;51.910;8.406;2023-07-13T02:17:26;1.90;;;1.27;;
33814;SDS011;20121;51.910;8.406;2023-07-13T02:19:52;3.40;;;1.85;;
33814;SDS011;20121;51.910;8.406;2023-07-13T02:22:17;1.10;;;0.97;;
33814;SDS011;20121;51.910;8.406;2023-07-13T02:24:43;2.60;;;1.20;;
33814;SDS011;20121;51.910;8.406;2023-07-13T02:27:09;2.73;;;1.33;;
33814;SDS011;20121;51.910;8.406;2023-07-13T02:29:34;1.83;;;1.40;;
33814;SDS011;20121;51.910;8.406;2023-07-13T02:32:00;3.90;;;1.30;;
33814;SDS011;20121;51.910;8.406;2023-07-13T02:34:26;1.70;;;1.40;;
33814;SDS011;20121;51.910;8.406;2023-07-13T02:36:51;1.20;;;1.10;;
33814;SDS011;20121;51.910;8.406;2023-07-13T02:39:17;1.70;;;1.40;;
33814;SDS011;20121;51.910;8.406;2023-07-13T02:41:43;2.57;;;1.10;;
33814;SDS011;20121;51.910;8.406;2023-07-13T02:44:08;1.70;;;1.60;;
33814;SDS011;20121;51.910;8.406;2023-07-13T02:46:34;3.13;;;1.37;;
33814;SDS011;20121;51.910;8.406;2023-07-13T02:49:02;2.75;;;1.50;;
33814;SDS011;20121;51.910;8.406;2023-07-13T02:51:28;3.33;;;1.80;;
33814;SDS011;20121;51.910;8.406;2023-07-13T02:53:53;1.60;;;1.50;;
33814;SDS011;20121;51.910;8.406;2023-07-13T02:56:24;1.50;;;1.40;;
33814;SDS011;20121;51.910;8.406;2023-07-13T02:58:51;3.20;;;1.70;;
33814;SDS011;20121;51.910;8.406;2023-07-13T03:01:17;3.17;;;1.40;;
33814;SDS011;20121;51.910;8.406;2023-07-13T03:03:44;4.05;;;1.80;;
33814;SDS011;20121;51.910;8.406;2023-07-13T03:06:10;2.65;;;1.60;;
33814;SDS011;20121;51.910;8.406;2023-07-13T03:08:36;3.08;;;2.22;;
33814;SDS011;20121;51.910;8.406;2023-07-13T03:11:03;2.30;;;1.90;;
33814;SDS011;20121;51.910;8.406;2023-07-13T03:13:34;1.80;;;1.70;;
33814;SDS011;20121;51.910;8.406;2023-07-13T03:16:00;2.05;;;1.90;;
33814;SDS011;20121;51.910;8.406;2023-07-13T03:18:26;1.73;;;1.57;;
33814;SDS011;20121;51.910;8.406;2023-07-13T03:20:52;1.85;;;1.63;;
33814;SDS011;20121;51.910;8.406;2023-07-13T03:23:19;2.03;;;1.48;;
33814;SDS011;20121;51.910;8.406;2023-07-13T03:25:45;2.65;;;1.85;;
33814;SDS011;20121;51.910;8.406;2023-07-13T03:28:11;2.37;;;2.03;;
33814;SDS011;20121;51.910;8.406;2023-07-13T03:30:37;3.85;;;1.50;;
33814;SDS011;20121;51.910;8.406;2023-07-13T03:33:03;1.60;;;1.40;;
33814;SDS011;20121;51.910;8.406;2023-07-13T03:35:29;3.50;;;2.03;;
33814;SDS011;20121;51.910;8.406;2023-07-13T03:37:54;1.50;;;1.37;;
33814;SDS011;20121;51.910;8.406;2023-07-13T03:40:20;3.60;;;1.70;;
33814;SDS011;20121;51.910;8.406;2023-07-13T03:42:46;4.00;;;2.23;;
33814;SDS011;20121;51.910;8.406;2023-07-13T03:45:12;2.07;;;1.87;;
33814;SDS011;20121;51.910;8.406;2023-07-13T03:47:38;2.10;;;1.90;;
33814;SDS011;20121;51.910;8.406;2023-07-13T03:50:03;1.80;;;1.70;;
33814;SDS011;20121;51.910;8.406;2023-07-13T03:52:29;2.25;;;1.70;;
33814;SDS011;20121;51.910;8.406;2023-07-13T03:54:55;6.80;;;1.47;;
33814;SDS011;20121;51.910;8.406;2023-07-13T03:57:21;2.93;;;1.77;;
33814;SDS011;20121;51.910;8.406;2023-07-13T03:59:48;4.47;;;2.00;;
33814;SDS011;20121;51.910;8.406;2023-07-13T04:02:13;4.80;;;2.13;;
33814;SDS011;20121;51.910;8.406;2023-07-13T04:04:39;1.77;;;1.57;;
33814;SDS011;20121;51.910;8.406;2023-07-13T04:07:05;1.42;;;1.30;;
33814;SDS011;20121;51.910;8.406;2023-07-13T04:09:33;1.38;;;1.27;;
33814;SDS011;20121;51.910;8.406;2023-07-13T04:11:59;2.03;;;1.65;;
33814;SDS011;20121;51.910;8.406;2023-07-13T04:14:24;1.83;;;1.73;;
33814;SDS011;20121;51.910;8.406;2023-07-13T04:16:50;3.00;;;1.20;;
33814;SDS011;20121;51.910;8.406;2023-07-13T04:19:16;1.83;;;1.40;;
33814;SDS011;20121;51.910;8.406;2023-07-13T04:21:42;2.20;;;1.40;;
33814;SDS011;20121;51.910;8.406;2023-07-13T04:24:08;1.57;;;1.40;;
33814;SDS011;20121;51.910;8.406;2023-07-13T04:26:33;3.93;;;1.60;;
33814;SDS011;20121;51.910;8.406;2023-07-13T04:29:01;1.10;;;1.00;;
33814;SDS011;20121;51.910;8.406;2023-07-13T04:31:29;2.83;;;1.40;;
33814;SDS011;20121;51.910;8.406;2023-07-13T04:33:55;2.42;;;1.38;;
33814;SDS011;20121;51.910;8.406;2023-07-13T04:36:21;7.30;;;1.90;;
33814;SDS011;20121;51.910;8.406;2023-07-13T04:38:46;2.83;;;1.33;;
33814;SDS011;20121;51.910;8.406;2023-07-13T04:41:12;2.80;;;1.53;;
33814;SDS011;20121;51.910;8.406;2023-07-13T04:43:39;2.65;;;1.73;;
33814;SDS011;20121;51.910;8.406;2023-07-13T04:46:07;2.90;;;1.70;;
33814;SDS011;20121;51.910;8.406;2023-07-13T04:48:34;1.20;;;1.10;;
33814;SDS011;20121;51.910;8.406;2023-07-13T04:51:01;3.23;;;1.40;;
33814;SDS011;20121;51.910;8.406;2023-07-13T04:53:27;1.95;;;1.73;;
33814;SDS011;20121;51.910;8.406;2023-07-13T04:55:53;1.30;;;1.20;;
33814;SDS011;20121;51.910;8.406;2023-07-13T04:58:19;1.10;;;1.00;;
33814;SDS011;20121;51.910;8.406;2023-07-13T05:00:46;2.08;;;1.45;;
33814;SDS011;20121;51.910;8.406;2023-07-13T05:03:12;1.43;;;1.10;;
33814;SDS011;20121;51.910;8.406;2023-07-13T05:05:38;3.73;;;1.33;;
33814;SDS011;20121;51.910;8.406;2023-07-13T05:08:03;4.57;;;1.70;;
33814;SDS011;20121;51.910;8.406;2023-07-13T05:10:29;4.20;;;1.40;;
33814;SDS011;20121;51.910;8.406;2023-07-13T05:12:55;1.53;;;1.10;;
33814;SDS011;20121;51.910;8.406;2023-07-13T05:15:21;0.97;;;0.87;;
33814;SDS011;20121;51.910;8.406;2023-07-13T05:17:48;1.13;;;1.00;;
33814;SDS011;20121;51.910;8.406;2023-07-13T05:20:15;2.15;;;1.20;;
33814;SDS011;20121;51.910;8.406;2023-07-13T05:22:41;3.20;;;1.40;;
33814;SDS011;20121;51.910;8.406;2023-07-13T05:25:07;427.65;;;385.55;;
33814;SDS011;20121;51.910;8.406;2023-07-13T05:27:34;593.42;;;559.15;;
33814;SDS011;20121;51.910;8.406;2023-07-13T05:30:00;468.73;;;434.35;;
33814;SDS011;20121;51.910;8.406;2023-07-13T05:32:26;26.90;;;14.88;;
33814;SDS011;20121;51.910;8.406;2023-07-13T05:34:52;42.13;;;37.40;;
33814;SDS011;20121;51.910;8.406;2023-07-13T05:37:18;124.53;;;115.80;;
33814;SDS011;20121;51.910;8.406;2023-07-13T05:39:43;6.73;;;3.20;;
33814;SDS011;20121;51.910;8.406;2023-07-13T05:42:09;6.23;;;2.33;;
33814;SDS011;20121;51.910;8.406;2023-07-13T05:44:34;3.40;;;1.77;;
33814;SDS011;20121;51.910;8.406;2023-07-13T05:47:00;5.50;;;2.40;;
33814;SDS011;20121;51.910;8.406;2023-07-13T05:49:26;4.67;;;2.40;;
33814;SDS011;20121;51.910;8.406;2023-07-13T05:51:51;4.30;;;2.30;;
33814;SDS011;20121;51.910;8.406;2023-07-13T05:54:17;6.23;;;2.80;;
33814;SDS011;20121;51.910;8.406;2023-07-13T05:56:43;4.30;;;2.20;;
33814;SDS011;20121;51.910;8.406;2023-07-13T05:59:09;4.20;;;2.20;;
33814;SDS011;20121;51.910;8.406;2023-07-13T06:01:35;7.00;;;2.83;;
33814;SDS011;20121;51.910;8.406;2023-07-13T06:04:00;4.03;;;1.77;;
33814;SDS011;20121;51.910;8.406;2023-07-13T06:06:26;7.50;;;2.50;;
33814;SDS011;20121;51.910;8.406;2023-07-13T06:08:52;5.60;;;2.78;;
33814;SDS011;20121;51.910;8.406;2023-07-13T06:11:19;3.03;;;1.87;;
33814;SDS011;20121;51.910;8.406;2023-07-13T06:13:47;3.55;;;2.20;;
33814;SDS011;20121;51.910;8.406;2023-07-13T06:16:12;2.77;;;1.90;;
33814;SDS011;20121;51.910;8.406;2023-07-13T06:18:40;5.80;;;2.45;;
33814;SDS011;20121;51.910;8.406;2023-07-13T06:21:13;3.65;;;2.30;;
33814;SDS011;20121;51.910;8.406;2023-07-13T06:23:40;4.72;;;2.25;;
33814;SDS011;20121;51.910;8.406;2023-07-13T06:26:06;3.43;;;1.90;;
33814;SDS011;20121;51.910;8.406;2023-07-13T06:28:32;5.47;;;2.20;;
33814;SDS011;20121;51.910;8.406;2023-07-13T06:30:58;4.50;;;2.38;;
33814;SDS011;20121;51.910;8.406;2023-07-13T06:33:24;5.57;;;1.97;;
33814;SDS011;20121;51.910;8.406;2023-07-13T06:35:50;2.65;;;1.88;;
33814;SDS011;20121;51.910;8.406;2023-07-13T06:38:16;5.47;;;2.13;;
33814;SDS011;20121;51.910;8.406;2023-07-13T06:40:42;4.50;;;2.37;;
33814;SDS011;20121;51.910;8.406;2023-07-13T06:43:08;6.23;;;2.23;;
33814;SDS011;20121;51.910;8.406;2023-07-13T06:45:40;14.90;;;2.67;;
33814;SDS011;20121;51.910;8.406;2023-07-13T06:48:07;4.07;;;2.40;;
33814;SDS011;20121;51.910;8.406;2023-07-13T06:50:33;3.43;;;2.13;;
33814;SDS011;20121;51.910;8.406;2023-07-13T06:52:59;4.70;;;2.80;;
33814;SDS011;20121;51.910;8.406;2023-07-13T06:55:24;2.57;;;1.90;;
33814;SDS011;20121;51.910;8.406;2023-07-13T06:57:51;2.65;;;1.95;;
33814;SDS011;20121;51.910;8.406;2023-07-13T07:00:17;5.17;;;2.33;;
33814;SDS011;20121;51.910;8.406;2023-07-13T07:02:42;10.65;;;2.63;;
33814;SDS011;20121;51.910;8.406;2023-07-13T07:05:08;4.73;;;2.83;;
33814;SDS011;20121;51.910;8.406;2023-07-13T07:07:34;2.57;;;1.77;;
33814;SDS011;20121;51.910;8.406;2023-07-13T07:09:59;6.67;;;2.67;;
33814;SDS011;20121;51.910;8.406;2023-07-13T07:12:25;4.63;;;2.40;;
33814;SDS011;20121;51.910;8.406;2023-07-13T07:14:51;4.10;;;1.80;;
33814;SDS011;20121;51.910;8.406;2023-07-13T07:17:17;4.53;;;2.43;;
33814;SDS011;20121;51.910;8.406;2023-07-13T07:19:42;3.60;;;2.37;;
33814;SDS011;20121;51.910;8.406;2023-07-13T07:22:08;3.50;;;2.10;;
33814;SDS011;20121;51.910;8.406;2023-07-13T07:24:33;3.97;;;2.30;;
33814;SDS011;20121;51.910;8.406;2023-07-13T07:26:59;5.80;;;2.80;;
33814;SDS011;20121;51.910;8.406;2023-07-13T07:29:25;3.40;;;1.93;;
33814;SDS011;20121;51.910;8.406;2023-07-13T07:31:52;2.85;;;1.98;;
33814;SDS011;20121;51.910;8.406;2023-07-13T07:34:18;5.30;;;2.80;;
33814;SDS011;20121;51.910;8.406;2023-07-13T07:36:44;5.60;;;2.13;;
33814;SDS011;20121;51.910;8.406;2023-07-13T07:39:10;4.60;;;2.63;;
33814;SDS011;20121;51.910;8.406;2023-07-13T07:41:36;7.53;;;2.55;;
33814;SDS011;20121;51.910;8.406;2023-07-13T07:44:02;5.97;;;2.80;;
33814;SDS011;20121;51.910;8.406;2023-07-13T07:46:28;5.65;;;2.90;;
33814;SDS011;20121;51.910;8.406;2023-07-13T07:48:55;10.00;;;3.80;;
33814;SDS011;20121;51.910;8.406;2023-07-13T07:51:21;5.03;;;2.65;;
33814;SDS011;20121;51.910;8.406;2023-07-13T07:53:47;5.77;;;2.73;;
33814;SDS011;20121;51.910;8.406;2023-07-13T07:56:12;2.90;;;2.00;;
33814;SDS011;20121;51.910;8.406;2023-07-13T07:58:38;4.47;;;2.80;;
33814;SDS011;20121;51.910;8.406;2023-07-13T08:01:06;4.70;;;2.57;;
33814;SDS011;20121;51.910;8.406;2023-07-13T08:03:32;14.50;;;6.55;;
33814;SDS011;20121;51.910;8.406;2023-07-13T08:05:58;4.10;;;2.80;;
33814;SDS011;20121;51.910;8.406;2023-07-13T08:08:24;5.00;;;3.10;;
33814;SDS011;20121;51.910;8.406;2023-07-13T08:10:50;4.30;;;2.65;;
33814;SDS011;20121;51.910;8.406;2023-07-13T08:13:16;7.40;;;2.40;;
33814;SDS011;20121;51.910;8.406;2023-07-13T08:15:41;6.63;;;3.50;;
33814;SDS011;20121;51.910;8.406;2023-07-13T08:18:07;10.33;;;3.00;;
33814;SDS011;20121;51.910;8.406;2023-07-13T08:20:36;7.40;;;3.45;;
33814;SDS011;20121;51.910;8.406;2023-07-13T08:23:03;4.03;;;2.60;;
33814;SDS011;20121;51.910;8.406;2023-07-13T08:25:29;11.33;;;2.63;;
33814;SDS011;20121;51.910;8.406;2023-07-13T08:27:54;5.83;;;2.90;;
33814;SDS011;20121;51.910;8.406;2023-07-13T08:30:20;4.30;;;2.70;;
33814;SDS011;20121;51.910;8.406;2023-07-13T08:32:46;3.57;;;2.30;;
33814;SDS011;20121;51.910;8.406;2023-07-13T08:35:11;3.67;;;2.77;;
33814;SDS011;20121;51.910;8.406;2023-07-13T08:37:38;3.30;;;1.90;;
33814;SDS011;20121;51.910;8.406;2023-07-13T08:40:04;3.57;;;2.33;;
33814;SDS011;20121;51.910;8.406;2023-07-13T08:48:04;6.60;;;2.92;;
33814;SDS011;20121;51.910;8.406;2023-07-13T08:50:40;9.07;;;4.45;;
33814;SDS011;20121;51.910;8.406;2023-07-13T08:53:31;7.00;;;2.92;;
33814;SDS011;20121;51.910;8.406;2023-07-13T08:56:02;5.70;;;3.15;;
33814;SDS011;20121;51.910;8.406;2023-07-13T08:58:34;6.75;;;3.90;;
33814;SDS011;20121;51.910;8.406;2023-07-13T09:01:08;5.00;;;2.58;;
33814;SDS011;20121;51.910;8.406;2023-07-13T09:03:46;8.57;;;2.80;;
33814;SDS011;20121;51.910;8.406;2023-07-13T09:06:27;9.02;;;3.58;;
33814;SDS011;20121;51.910;8.406;2023-07-13T09:09:15;4.38;;;2.70;;
33814;SDS011;20121;51.910;8.406;2023-07-13T09:17:10;6.45;;;3.40;;
33814;SDS011;20121;51.910;8.406;2023-07-13T09:19:55;5.35;;;2.92;;
33814;SDS011;20121;51.910;8.406;2023-07-13T09:22:24;6.53;;;2.92;;
33814;SDS011;20121;51.910;8.406;2023-07-13T09:24:55;4.07;;;2.58;;
33814;SDS011;20121;51.910;8.406;2023-07-13T09:27:30;6.55;;;3.20;;
33814;SDS011;20121;51.910;8.406;2023-07-13T09:30:10;5.47;;;3.50;;
33814;SDS011;20121;51.910;8.406;2023-07-13T09:32:41;4.60;;;2.95;;
33814;SDS011;20121;51.910;8.406;2023-07-13T09:35:10;5.13;;;2.72;;
33814;SDS011;20121;51.910;8.406;2023-07-13T09:37:43;7.15;;;2.80;;
33814;SDS011;20121;51.910;8.406;2023-07-13T09:40:11;5.22;;;3.33;;
33814;SDS011;20121;51.910;8.406;2023-07-13T09:42:45;10.52;;;5.40;;
33814;SDS011;20121;51.910;8.406;2023-07-13T09:45:12;8.32;;;2.97;;
33814;SDS011;20121;51.910;8.406;2023-07-13T09:47:53;6.20;;;3.03;;
33814;SDS011;20121;51.910;8.406;2023-07-13T09:50:25;4.95;;;3.08;;
33814;SDS011;20121;51.910;8.406;2023-07-13T09:52:50;4.37;;;2.90;;
33814;SDS011;20121;51.910;8.406;2023-07-13T09:57:47;7.85;;;3.13;;
33814;SDS011;20121;51.910;8.406;2023-07-13T10:00:20;5.80;;;3.10;;
33814;SDS011;20121;51.910;8.406;2023-07-13T10:03:14;9.18;;;4.57;;
33814;SDS011;20121;51.910;8.406;2023-07-13T10:05:45;5.32;;;2.78;;
33814;SDS011;20121;51.910;8.406;2023-07-13T10:08:16;4.25;;;2.75;;
33814;SDS011;20121;51.910;8.406;2023-07-13T10:11:01;5.28;;;2.90;;
33814;SDS011;20121;51.910;8.406;2023-07-13T10:13:41;6.10;;;3.67;;
33814;SDS011;20121;51.910;8.406;2023-07-13T10:16:09;6.40;;;3.47;;
33814;SDS011;20121;51.910;8.406;2023-07-13T10:18:45;8.77;;;3.87;;
33814;SDS011;20121;51.910;8.406;2023-07-13T10:23:42;5.30;;;3.72;;
33814;SDS011;20121;51.910;8.406;2023-07-13T10:26:13;5.53;;;3.95;;
33814;SDS011;20121;51.910;8.406;2023-07-13T10:28:43;7.32;;;3.88;;
33814;SDS011;20121;51.910;8.406;2023-07-13T10:31:13;6.93;;;3.20;;
33814;SDS011;20121;51.910;8.406;2023-07-13T10:33:40;6.00;;;3.28;;
33814;SDS011;20121;51.910;8.406;2023-07-13T10:38:50;7.95;;;4.35;;
33814;SDS011;20121;51.910;8.406;2023-07-13T10:41:18;6.95;;;3.38;;
33814;SDS011;20121;51.910;8.406;2023-07-13T10:43:50;4.95;;;3.00;;
33814;SDS011;20121;51.910;8.406;2023-07-13T10:46:18;5.88;;;3.53;;
33814;SDS011;20121;51.910;8.406;2023-07-13T10:48:48;13.55;;;4.03;;
33814;SDS011;20121;51.910;8.406;2023-07-13T10:51:17;5.05;;;2.90;;
33814;SDS011;20121;51.910;8.406;2023-07-13T10:53:46;7.15;;;3.78;;
33814;SDS011;20121;51.910;8.406;2023-07-13T10:56:21;5.15;;;2.80;;
33814;SDS011;20121;51.910;8.406;2023-07-13T10:59:02;7.55;;;3.40;;
33814;SDS011;20121;51.910;8.406;2023-07-13T11:01:55;7.43;;;3.05;;
33814;SDS011;20121;51.910;8.406;2023-07-13T11:04:27;3.65;;;2.30;;
33814;SDS011;20121;51.910;8.406;2023-07-13T11:07:10;8.50;;;4.63;;
33814;SDS011;20121;51.910;8.406;2023-07-13T11:09:42;5.05;;;2.90;;
33814;SDS011;20121;51.910;8.406;2023-07-13T11:20:31;3.50;;;2.35;;
33814;SDS011;20121;51.910;8.406;2023-07-13T11:25:33;5.50;;;3.00;;
33814;SDS011;20121;51.910;8.406;2023-07-13T11:30:38;5.93;;;2.95;;
33814;SDS011;20121;51.910;8.406;2023-07-13T11:33:14;6.35;;;2.70;;
33814;SDS011;20121;51.910;8.406;2023-07-13T11:35:45;9.32;;;4.43;;
33814;SDS011;20121;51.910;8.406;2023-07-13T11:38:50;5.88;;;3.00;;
33814;SDS011;20121;51.910;8.406;2023-07-13T11:41:16;4.75;;;2.78;;
33814;SDS011;20121;51.910;8.406;2023-07-13T11:43:43;7.95;;;3.10;;
33814;SDS011;20121;51.910;8.406;2023-07-13T11:46:16;6.40;;;3.63;;
33814;SDS011;20121;51.910;8.406;2023-07-13T11:48:47;6.82;;;3.25;;
33814;SDS011;20121;51.910;8.406;2023-07-13T11:51:19;5.47;;;3.08;;
33814;SDS011;20121;51.910;8.406;2023-07-13T11:53:58;109.97;;;102.05;;
33814;SDS011;20121;51.910;8.406;2023-07-13T11:56:33;6.80;;;3.08;;
33814;SDS011;20121;51.910;8.406;2023-07-13T11:58:59;4.88;;;2.80;;
33814;SDS011;20121;51.910;8.406;2023-07-13T12:01:31;4.20;;;2.53;;
33814;SDS011;20121;51.910;8.406;2023-07-13T12:04:00;3.83;;;2.60;;
33814;SDS011;20121;51.910;8.406;2023-07-13T12:06:29;4.07;;;2.50;;
33814;SDS011;20121;51.910;8.406;2023-07-13T12:08:59;4.57;;;2.97;;
33814;SDS011;20121;51.910;8.406;2023-07-13T12:11:28;4.85;;;2.58;;
33814;SDS011;20121;51.910;8.406;2023-07-13T12:13:55;3.63;;;2.45;;
33814;SDS011;20121;51.910;8.406;2023-07-13T12:16:31;6.85;;;2.45;;
33814;SDS011;20121;51.910;8.406;2023-07-13T12:18:58;6.35;;;3.25;;
33814;SDS011;20121;51.910;8.406;2023-07-13T12:21:33;5.20;;;3.05;;
33814;SDS011;20121;51.910;8.406;2023-07-13T12:24:03;11.93;;;7.95;;
33814;SDS011;20121;51.910;8.406;2023-07-13T12:26:29;13.35;;;4.90;;
33814;SDS011;20121;51.910;8.406;2023-07-13T12:28:58;6.50;;;3.72;;
33814;SDS011;20121;51.910;8.406;2023-07-13T12:34:17;8.48;;;4.55;;
33814;SDS011;20121;51.910;8.406;2023-07-13T12:39:20;7.00;;;3.40;;
33814;SDS011;20121;51.910;8.406;2023-07-13T12:41:49;6.80;;;3.15;;
33814;SDS011;20121;51.910;8.406;2023-07-13T12:44:29;10.00;;;4.18;;
33814;SDS011;20121;51.910;8.406;2023-07-13T12:46:58;5.95;;;3.05;;
33814;SDS011;20121;51.910;8.406;2023-07-13T12:49:30;6.28;;;3.17;;
33814;SDS011;20121;51.910;8.406;2023-07-13T12:52:01;10.85;;;4.68;;
33814;SDS011;20121;51.910;8.406;2023-07-13T12:54:38;3.63;;;2.25;;
33814;SDS011;20121;51.910;8.406;2023-07-13T12:57:04;4.65;;;2.75;;
33814;SDS011;20121;51.910;8.406;2023-07-13T12:59:34;7.43;;;3.88;;
33814;SDS011;20121;51.910;8.406;2023-07-13T13:02:01;12.95;;;9.55;;
33814;SDS011;20121;51.910;8.406;2023-07-13T13:04:27;17.90;;;9.98;;
33814;SDS011;20121;51.910;8.406;2023-07-13T13:07:00;20.27;;;18.33;;
33814;SDS011;20121;51.910;8.406;2023-07-13T13:09:28;5.30;;;2.90;;
33814;SDS011;20121;51.910;8.406;2023-07-13T13:11:54;4.53;;;2.53;;
33814;SDS011;20121;51.910;8.406;2023-07-13T13:14:19;8.90;;;5.13;;
33814;SDS011;20121;51.910;8.406;2023-07-13T13:16:46;10.30;;;5.90;;
33814;SDS011;20121;51.910;8.406;2023-07-13T13:19:19;4.90;;;2.80;;
33814;SDS011;20121;51.910;8.406;2023-07-13T13:21:48;6.82;;;2.47;;
33814;SDS011;20121;51.910;8.406;2023-07-13T13:24:18;6.85;;;3.25;;
33814;SDS011;20121;51.910;8.406;2023-07-13T13:26:46;6.55;;;3.05;;
33814;SDS011;20121;51.910;8.406;2023-07-13T13:29:14;9.30;;;3.83;;
33814;SDS011;20121;51.910;8.406;2023-07-13T13:31:49;6.25;;;3.70;;
33814;SDS011;20121;51.910;8.406;2023-07-13T13:34:17;4.22;;;2.45;;
33814;SDS011;20121;51.910;8.406;2023-07-13T13:36:44;4.80;;;3.00;;
33814;SDS011;20121;51.910;8.406;2023-07-13T13:41:45;4.95;;;3.03;;
33814;SDS011;20121;51.910;8.406;2023-07-13T13:44:11;4.93;;;3.20;;
33814;SDS011;20121;51.910;8.406;2023-07-13T13:46:38;6.80;;;4.50;;
33814;SDS011;20121;51.910;8.406;2023-07-13T13:49:03;7.00;;;3.90;;
33814;SDS011;20121;51.910;8.406;2023-07-13T13:51:29;10.00;;;4.60;;
33814;SDS011;20121;51.910;8.406;2023-07-13T13:53:55;11.00;;;7.33;;
33814;SDS011;20121;51.910;8.406;2023-07-13T13:56:20;8.93;;;3.90;;
33814;SDS011;20121;51.910;8.406;2023-07-13T13:58:46;9.40;;;4.80;;
33814;SDS011;20121;51.910;8.406;2023-07-13T14:01:19;20.75;;;18.73;;
33814;SDS011;20121;51.910;8.406;2023-07-13T14:03:47;7.05;;;3.75;;
33814;SDS011;20121;51.910;8.406;2023-07-13T14:06:18;27.08;;;24.98;;
33814;SDS011;20121;51.910;8.406;2023-07-13T14:08:45;32.22;;;29.33;;
33814;SDS011;20121;51.910;8.406;2023-07-13T14:11:17;10.32;;;5.00;;
33814;SDS011;20121;51.910;8.406;2023-07-13T14:13:47;12.18;;;10.35;;
33814;SDS011;20121;51.910;8.406;2023-07-13T14:16:15;13.27;;;9.23;;
33814;SDS011;20121;51.910;8.406;2023-07-13T14:18:46;9.57;;;5.07;;
33814;SDS011;20121;51.910;8.406;2023-07-13T14:21:13;8.10;;;3.50;;
33814;SDS011;20121;51.910;8.406;2023-07-13T14:23:40;10.15;;;4.90;;
33814;SDS011;20121;51.910;8.406;2023-07-13T14:26:10;6.40;;;3.17;;
33814;SDS011;20121;51.910;8.406;2023-07-13T14:28:38;8.05;;;4.03;;
33814;SDS011;20121;51.910;8.406;2023-07-13T14:31:08;15.65;;;8.57;;
33814;SDS011;20121;51.910;8.406;2023-07-13T14:33:34;5.07;;;3.15;;
33814;SDS011;20121;51.910;8.406;2023-07-13T14:36:00;7.33;;;5.43;;
33814;SDS011;20121;51.910;8.406;2023-07-13T14:38:26;13.05;;;8.10;;
33814;SDS011;20121;51.910;8.406;2023-07-13T14:40:52;5.70;;;3.63;;
33814;SDS011;20121;51.910;8.406;2023-07-13T14:43:18;5.17;;;2.80;;
33814;SDS011;20121;51.910;8.406;2023-07-13T14:45:44;3.33;;;2.00;;
33814;SDS011;20121;51.910;8.406;2023-07-13T14:48:32;4.30;;;2.50;;
33814;SDS011;20121;51.910;8.406;2023-07-13T14:50:59;6.32;;;3.80;;
33814;SDS011;20121;51.910;8.406;2023-07-13T14:53:25;8.03;;;3.13;;
33814;SDS011;20121;51.910;8.406;2023-07-13T14:55:54;5.38;;;2.50;;
33814;SDS011;20121;51.910;8.406;2023-07-13T14:58:20;4.07;;;2.50;;
33814;SDS011;20121;51.910;8.406;2023-07-13T15:00:46;4.30;;;2.70;;
33814;SDS011;20121;51.910;8.406;2023-07-13T15:03:18;6.97;;;3.57;;
33814;SDS011;20121;51.910;8.406;2023-07-13T15:05:49;19.70;;;18.08;;
33814;SDS011;20121;51.910;8.406;2023-07-13T15:08:15;4.30;;;2.40;;
33814;SDS011;20121;51.910;8.406;2023-07-13T15:10:41;7.73;;;3.53;;
33814;SDS011;20121;51.910;8.406;2023-07-13T15:13:20;5.15;;;2.70;;
33814;SDS011;20121;51.910;8.406;2023-07-13T15:15:47;6.05;;;3.10;;
33814;SDS011;20121;51.910;8.406;2023-07-13T15:18:17;5.72;;;2.97;;
33814;SDS011;20121;51.910;8.406;2023-07-13T15:20:45;51.45;;;48.05;;
33814;SDS011;20121;51.910;8.406;2023-07-13T15:23:13;6.30;;;3.10;;
33814;SDS011;20121;51.910;8.406;2023-07-13T15:25:40;6.93;;;3.42;;
33814;SDS011;20121;51.910;8.406;2023-07-13T15:28:06;8.43;;;4.35;;
33814;SDS011;20121;51.910;8.406;2023-07-13T15:30:43;8.00;;;3.40;;
33814;SDS011;20121;51.910;8.406;2023-07-13T15:33:19;7.00;;;3.80;;